createdAt,value
2022-08-10T00:00:16.825Z,100341.27
2022-08-10T00:03:37.730Z,100336.35
2022-08-10T00:06:39.755Z,100333.74
2022-08-10T00:09:50.801Z,100334.44
2022-08-10T00:12:55.190Z,100336.07
2022-08-10T00:15:57.606Z,100336.40
2022-08-10T00:18:59.888Z,100340.23
2022-08-10T00:22:01.761Z,100340.71
2022-08-10T00:25:04.279Z,100337.61
2022-08-10T00:28:06.263Z,100340.13
2022-08-10T00:31:08.035Z,100336.31
2022-08-10T00:34:09.893Z,100339.86
2022-08-10T00:37:13.110Z,100337.44
2022-08-10T00:40:15.042Z,100338.39
2022-08-10T00:43:23.326Z,100338.54
2022-08-10T00:46:26.363Z,100343.27
2022-08-10T00:49:28.442Z,100344.01
2022-08-10T00:52:30.578Z,100344.14
2022-08-10T00:55:32.975Z,100344.31
2022-08-10T00:58:54.681Z,100341.52
2022-08-10T01:02:09.473Z,100344.30
2022-08-10T01:05:14.615Z,100344.98
2022-08-10T01:08:26.557Z,100345.92
2022-08-10T01:12:38.476Z,100346.66
2022-08-10T01:15:22.872Z,100344.40
2022-08-10T01:18:37.682Z,100341.93
2022-08-10T01:21:59.825Z,100343.06
2022-08-10T01:25:24.805Z,100337.38
2022-08-10T01:28:38.670Z,100339.74
2022-08-10T01:31:46.137Z,100335.64
2022-08-10T01:35:07.136Z,100338.67
2022-08-10T01:38:36.702Z,100337.27
2022-08-10T01:41:46.345Z,100337.25
2022-08-10T01:45:02.266Z,100336.38
2022-08-10T01:48:24.551Z,100340.98
2022-08-10T01:51:35.586Z,100341.61
2022-08-10T01:54:39.415Z,100341.83
2022-08-10T01:57:42.481Z,100342.73
2022-08-10T02:00:45.814Z,100341.58
2022-08-10T02:04:04.007Z,100341.61
2022-08-10T02:07:11.554Z,100341.31
2022-08-10T02:10:15.318Z,100341.64
2022-08-10T02:13:19.063Z,100346.23
2022-08-10T02:16:21.822Z,100346.90
2022-08-10T02:19:25.323Z,100346.70
2022-08-10T02:22:38.037Z,100350.35
2022-08-10T02:25:48.540Z,100349.66
2022-08-10T02:28:52.175Z,100351.64
2022-08-10T02:31:55.599Z,100351.87
2022-08-10T02:34:59.472Z,100357.14
2022-08-10T02:38:05.215Z,100354.02
2022-08-10T02:45:00.994Z,100356.34
2022-08-10T02:45:21.241Z,100357.39
2022-08-10T02:48:32.743Z,100353.65
2022-08-10T02:52:07.476Z,100357.95
2022-08-10T02:55:19.748Z,100356.29
2022-08-10T02:58:33.479Z,100361.86
2022-08-10T03:01:40.889Z,100364.89
2022-08-10T03:04:55.034Z,100365.36
2022-08-10T03:08:06.614Z,100364.44
2022-08-10T03:11:10.737Z,100363.62
2022-08-10T03:14:14.364Z,100369.41
2022-08-10T03:17:17.338Z,100370.14
2022-08-10T03:20:35.902Z,100369.36
2022-08-10T03:23:42.081Z,100375.20
2022-08-10T03:26:44.282Z,100376.64
2022-08-10T03:30:31.780Z,100377.90
2022-08-10T03:33:08.950Z,100382.09
2022-08-10T03:36:40.242Z,100386.72
2022-08-10T03:39:32.885Z,100387.76
2022-08-10T03:42:39.589Z,100391.89
2022-08-10T03:45:49.420Z,100391.52
2022-08-10T03:49:02.017Z,100391.73
2022-08-10T03:52:06.415Z,100395.64
2022-08-10T03:55:08.704Z,100396.79
2022-08-10T03:58:11.195Z,100400.52
2022-08-10T04:01:14.989Z,100402.70
2022-08-10T04:04:22.877Z,100403.96
2022-08-10T04:07:26.737Z,100407.30
2022-08-10T04:10:29.439Z,100405.95
2022-08-10T04:13:31.349Z,100403.36
2022-08-10T04:16:33.065Z,100405.27
2022-08-10T04:19:41.239Z,100404.53
2022-08-10T04:22:44.971Z,100405.15
2022-08-10T04:25:46.787Z,100407.88
2022-08-10T04:28:49.322Z,100407.23
2022-08-10T04:31:52.868Z,100403.48
2022-08-10T04:34:55.904Z,100408.66
2022-08-10T04:37:58.552Z,100405.88
2022-08-10T04:41:01.473Z,100406.96
2022-08-10T04:44:03.680Z,100408.71
2022-08-10T04:47:05.749Z,100405.77
2022-08-10T04:50:10.024Z,100408.17
2022-08-10T04:53:11.822Z,100407.99
2022-08-10T04:56:14.204Z,100407.73
2022-08-10T04:59:16.254Z,100407.27
2022-08-10T05:02:29.663Z,100413.27
2022-08-10T05:05:39.786Z,100416.63
2022-08-10T05:08:41.530Z,100411.91
2022-08-10T05:11:44.248Z,100414.63
2022-08-10T05:14:46.196Z,100419.46
2022-08-10T05:18:06.077Z,100419.95
2022-08-10T05:21:10.182Z,100418.71
2022-08-10T05:24:11.824Z,100418.73
2022-08-10T05:27:13.576Z,100417.75
2022-08-10T05:30:21.274Z,100413.32
2022-08-10T05:33:22.951Z,100412.89
2022-08-10T05:36:24.921Z,100408.65
2022-08-10T05:39:31.789Z,100403.92
2022-08-10T05:42:34.750Z,100402.82
2022-08-10T05:46:19.074Z,100400.19
2022-08-10T05:49:01.560Z,100404.86
2022-08-10T05:52:04.184Z,100402.86
2022-08-10T05:55:06.694Z,100404.02
2022-08-10T05:58:09.357Z,100405.98
2022-08-10T06:01:13.855Z,100407.48
2022-08-10T06:04:20.541Z,100414.47
2022-08-10T06:07:27.320Z,100410.96
2022-08-10T06:10:32.537Z,100413.08
2022-08-10T06:14:12.646Z,100407.59
2022-08-10T06:17:17.191Z,100410.27
2022-08-10T06:20:19.024Z,100412.56
2022-08-10T06:23:21.172Z,100417.69
2022-08-10T06:26:22.970Z,100415.85
2022-08-10T06:29:25.599Z,100417.19
2022-08-10T06:32:28.702Z,100414.06
2022-08-10T06:35:32.605Z,100416.95
2022-08-10T06:38:35.390Z,100417.20
2022-08-10T06:42:14.994Z,100414.77
2022-08-10T06:45:12.171Z,100414.02
2022-08-10T06:48:25.309Z,100414.14
2022-08-10T06:51:30.986Z,100414.71
2022-08-10T06:54:33.482Z,100413.59
2022-08-10T06:57:38.103Z,100408.79
2022-08-10T07:00:41.750Z,100413.66
2022-08-10T07:03:47.613Z,100410.34
2022-08-10T07:06:49.529Z,100411.40
2022-08-10T07:09:52.125Z,100414.09
2022-08-10T07:12:58.311Z,100410.54
2022-08-10T07:16:00.808Z,100409.60
2022-08-10T07:19:03.176Z,100406.93
2022-08-10T07:22:05.917Z,100406.26
2022-08-10T07:25:09.557Z,100405.58
2022-08-10T07:28:11.831Z,100410.81
2022-08-10T07:31:56.616Z,100407.87
2022-08-10T07:34:41.226Z,100404.70
2022-08-10T07:37:47.058Z,100403.43
2022-08-10T07:40:50.395Z,100397.95
2022-08-10T07:43:53.138Z,100393.59
2022-08-10T07:46:57.383Z,100394.79
2022-08-10T07:50:03.089Z,100393.83
2022-08-10T07:53:09.051Z,100395.21
2022-08-10T07:56:26.287Z,100393.04
2022-08-10T07:59:42.438Z,100397.48
2022-08-10T08:02:58.260Z,100399.31
2022-08-10T08:06:02.948Z,100394.84
2022-08-10T08:09:05.780Z,100396.55
2022-08-10T08:12:08.396Z,100395.27
2022-08-10T08:16:17.580Z,100393.18
2022-08-10T08:18:37.119Z,100392.47
2022-08-10T08:24:04.647Z,100388.80
2022-08-10T08:25:07.191Z,100384.56
2022-08-10T08:28:11.374Z,100379.23
2022-08-10T08:31:14.955Z,100374.84
2022-08-10T08:34:17.456Z,100371.81
2022-08-10T08:38:31.390Z,100369.67
2022-08-10T08:40:45.194Z,100368.40
2022-08-10T08:43:54.466Z,100370.07
2022-08-10T08:47:02.857Z,100368.86
2022-08-10T08:50:47.230Z,100365.40
2022-08-10T08:54:21.634Z,100366.65
2022-08-10T08:57:49.672Z,100364.82
2022-08-10T09:01:03.982Z,100357.54
2022-08-10T09:04:38.064Z,100356.04
2022-08-10T09:08:04.786Z,100357.87
2022-08-10T09:11:17.184Z,100355.16
2022-08-10T09:14:36.005Z,100357.81
2022-08-10T09:18:05.810Z,100352.77
2022-08-10T09:21:18.002Z,100350.48
2022-08-10T09:24:28.818Z,100350.70
2022-08-10T09:27:43.604Z,100349.23
2022-08-10T09:31:18.844Z,100349.11
2022-08-10T09:36:21.609Z,100346.94
2022-08-10T09:38:14.577Z,100343.38
2022-08-10T09:41:26.349Z,100345.23
2022-08-10T09:44:34.153Z,100337.68
2022-08-10T09:48:19.634Z,100334.50
2022-08-10T09:51:48.042Z,100331.39
2022-08-10T09:54:54.845Z,100329.35
2022-08-10T09:58:35.978Z,100318.58
2022-08-10T10:02:02.610Z,100319.25
2022-08-10T10:05:25.534Z,100317.89
2022-08-10T10:08:44.788Z,100320.52
2022-08-10T10:12:18.914Z,100318.21
2022-08-10T10:15:48.708Z,100309.16
2022-08-10T10:19:28.929Z,100304.96
2022-08-10T10:23:09.720Z,100296.75
2022-08-10T10:26:49.112Z,100294.54
2022-08-10T10:30:06.443Z,100294.27
2022-08-10T10:33:21.061Z,100292.52
2022-08-10T10:36:24.109Z,100293.24
2022-08-10T10:39:26.463Z,100298.73
2022-08-10T10:42:45.770Z,100300.21
2022-08-10T10:46:29.280Z,100293.95
2022-08-10T10:49:48.880Z,100288.57
2022-08-10T10:53:10.163Z,100286.49
2022-08-10T10:56:37.077Z,100286.12
2022-08-10T11:00:06.184Z,100288.27
2022-08-10T11:03:26.726Z,100285.34
2022-08-10T11:07:01.665Z,100275.67
2022-08-10T11:10:33.578Z,100273.80
2022-08-10T11:14:26.651Z,100273.64
2022-08-10T11:17:34.690Z,100269.78
2022-08-10T11:20:38.943Z,100270.01
2022-08-10T11:24:48.664Z,100268.77
2022-08-10T11:27:22.605Z,100266.21
2022-08-10T11:30:48.231Z,100269.88
2022-08-10T11:34:49.377Z,100264.03
2022-08-10T11:38:32.159Z,100258.86
2022-08-10T11:42:08.929Z,100256.95
2022-08-10T11:45:02.745Z,100253.42
2022-08-10T11:48:53.953Z,100252.35
2022-08-10T11:51:49.117Z,100252.12
2022-08-10T11:54:54.077Z,100247.27
2022-08-10T11:58:00.227Z,100245.52
2022-08-10T12:01:07.662Z,100244.42
2022-08-10T12:04:12.101Z,100243.52
2022-08-10T12:10:01.876Z,100244.73
2022-08-10T12:10:40.764Z,100241.98
2022-08-10T12:14:19.731Z,100235.55
2022-08-10T12:17:22.888Z,100232.75
2022-08-10T12:20:37.116Z,100230.51
2022-08-10T12:23:46.034Z,100230.70
2022-08-10T12:27:08.165Z,100225.12
2022-08-10T12:30:16.557Z,100228.46
2022-08-10T12:33:25.461Z,100227.48
2022-08-10T12:36:29.348Z,100225.53
2022-08-10T12:39:38.023Z,100218.48
2022-08-10T12:43:03.887Z,100215.63
2022-08-10T12:46:28.784Z,100205.59
2022-08-10T12:49:34.912Z,100201.39
2022-08-10T12:52:59.121Z,100196.91
2022-08-10T12:56:08.639Z,100184.91
2022-08-10T12:59:11.455Z,100180.67
2022-08-10T13:02:23.642Z,100175.86
2022-08-10T13:05:26.523Z,100172.83
2022-08-10T13:08:51.177Z,100170.46
2022-08-10T13:12:44.677Z,100169.70
2022-08-10T13:15:50.010Z,100173.45
2022-08-10T13:18:53.592Z,100175.40
2022-08-10T13:21:56.644Z,100170.98
2022-08-10T13:25:01.785Z,100173.99
2022-08-10T13:28:36.563Z,100174.89
2022-08-10T13:32:09.514Z,100165.22
2022-08-10T13:34:53.861Z,100161.33
2022-08-10T13:37:58.208Z,100157.87
2022-08-10T13:41:01.028Z,100152.73
2022-08-10T13:44:02.874Z,100151.38
2022-08-10T13:47:05.973Z,100145.49
2022-08-10T13:50:13.299Z,100147.63
2022-08-10T13:53:18.253Z,100146.78
2022-08-10T13:56:21.396Z,100148.23
2022-08-10T14:00:34.568Z,100150.25
2022-08-10T14:03:06.461Z,100150.98
2022-08-10T14:06:13.017Z,100146.66
2022-08-10T14:09:15.982Z,100146.64
2022-08-10T14:12:18.121Z,100145.16
2022-08-10T14:15:31.049Z,100139.14
2022-08-10T14:18:36.853Z,100140.39
2022-08-10T14:21:42.327Z,100138.95
2022-08-10T14:24:44.118Z,100136.83
2022-08-10T14:28:03.712Z,100140.47
2022-08-10T14:31:21.868Z,100134.42
2022-08-10T14:36:16.801Z,100133.66
2022-08-10T14:37:55.486Z,100130.11
2022-08-10T14:40:59.834Z,100131.41
2022-08-10T14:44:07.053Z,100129.75
2022-08-10T14:47:51.364Z,100122.41
2022-08-10T14:50:33.555Z,100123.59
2022-08-10T14:53:37.735Z,100121.27
2022-08-10T14:56:39.639Z,100125.50
2022-08-10T15:00:24.730Z,100118.65
2022-08-10T15:03:11.097Z,100114.14
2022-08-10T15:06:30.992Z,100112.21
2022-08-10T15:10:02.183Z,100114.27
2022-08-10T15:13:07.392Z,100112.45
2022-08-10T15:16:31.728Z,100114.41
2022-08-10T15:20:02.380Z,100118.54
2022-08-10T15:23:06.784Z,100119.75
2022-08-10T15:26:11.374Z,100117.69
2022-08-10T15:29:23.303Z,100121.52
2022-08-10T15:32:53.016Z,100113.52
2022-08-10T15:36:14.012Z,100112.76
2022-08-10T15:40:21.766Z,100109.54
2022-08-10T15:42:42.076Z,100107.70
2022-08-10T15:45:57.440Z,100106.19
2022-08-10T15:49:02.216Z,100102.63
2022-08-10T15:52:09.290Z,100101.23
2022-08-10T15:55:43.844Z,100106.71
2022-08-10T15:58:50.704Z,100108.42
2022-08-10T16:02:13.373Z,100112.53
2022-08-10T16:05:19.198Z,100111.44
2022-08-10T16:08:56.208Z,100113.16
2022-08-10T16:12:15.103Z,100110.42
2022-08-10T16:15:18.708Z,100112.71
2022-08-10T16:18:25.641Z,100112.96
2022-08-10T16:21:28.689Z,100113.77
2022-08-10T16:24:34.707Z,100116.21
2022-08-10T16:27:38.377Z,100112.75
2022-08-10T16:30:54.342Z,100114.06
2022-08-10T16:34:00.606Z,100112.98
2022-08-10T16:37:10.546Z,100115.24
2022-08-10T16:40:13.595Z,100119.89
2022-08-10T16:43:17.371Z,100119.61
2022-08-10T16:46:26.526Z,100115.30
2022-08-10T16:49:30.760Z,100117.30
2022-08-10T16:52:34.374Z,100112.64
2022-08-10T16:55:48.472Z,100113.71
2022-08-10T16:58:55.563Z,100114.77
2022-08-10T17:01:58.862Z,100117.93
2022-08-10T17:05:01.027Z,100118.41
2022-08-10T17:08:06.437Z,100119.02
2022-08-10T17:11:08.322Z,100122.57
2022-08-10T17:14:16.269Z,100120.95
2022-08-10T17:17:22.303Z,100122.41
2022-08-10T17:20:30.310Z,100119.93
2022-08-10T17:23:35.905Z,100119.34
2022-08-10T17:26:38.503Z,100122.72
2022-08-10T17:29:57.519Z,100127.52
2022-08-10T17:33:07.113Z,100126.70
2022-08-10T17:36:08.950Z,100123.73
2022-08-10T17:39:12.115Z,100123.15
2022-08-10T17:42:20.853Z,100124.67
2022-08-10T17:45:48.421Z,100127.42
2022-08-10T17:48:52.447Z,100129.30
2022-08-10T17:51:56.718Z,100129.42
2022-08-10T17:55:04.600Z,100126.85
2022-08-10T17:58:17.785Z,100135.94
2022-08-10T18:01:42.075Z,100137.27
2022-08-10T18:04:49.417Z,100138.60
2022-08-10T18:07:53.710Z,100139.65
2022-08-10T18:10:57.379Z,100138.08
2022-08-10T18:14:06.055Z,100142.25
2022-08-10T18:17:39.433Z,100143.78
2022-08-10T18:20:42.806Z,100148.16
2022-08-10T18:23:52.482Z,100155.02
2022-08-10T18:26:55.722Z,100152.86
2022-08-10T18:30:02.642Z,100158.20
2022-08-10T18:33:09.537Z,100156.64
2022-08-10T18:36:12.403Z,100162.38
2022-08-10T18:39:15.344Z,100157.91
2022-08-10T18:42:20.277Z,100159.73
2022-08-10T18:45:26.001Z,100160.67
2022-08-10T18:48:37.634Z,100159.77
2022-08-10T18:51:46.870Z,100165.40
2022-08-10T18:54:51.593Z,100167.23
2022-08-10T18:57:56.498Z,100168.94
2022-08-10T19:01:15.634Z,100170.34
2022-08-10T19:04:52.086Z,100171.88
2022-08-10T19:08:29.961Z,100172.31
2022-08-10T19:11:48.671Z,100169.84
2022-08-10T19:15:11.129Z,100175.91
2022-08-10T19:18:30.940Z,100174.17
2022-08-10T19:21:45.853Z,100177.40
2022-08-10T19:25:00.190Z,100178.19
2022-08-10T19:28:16.932Z,100180.02
2022-08-10T19:31:41.847Z,100182.60
2022-08-10T19:35:02.291Z,100182.71
2022-08-10T19:38:16.822Z,100181.73
2022-08-10T19:41:41.938Z,100183.81
2022-08-10T19:44:55.801Z,100184.27
2022-08-10T19:48:06.151Z,100187.08
2022-08-10T19:51:28.213Z,100185.08
2022-08-10T19:54:59.939Z,100184.35
2022-08-10T19:58:26.898Z,100182.63
2022-08-10T20:01:55.371Z,100180.44
2022-08-10T20:05:07.197Z,100182.15
2022-08-10T20:08:28.147Z,100181.42
2022-08-10T20:11:52.577Z,100184.75
2022-08-10T20:15:10.317Z,100184.52
2022-08-10T20:18:21.619Z,100183.93
2022-08-10T20:21:30.207Z,100185.27
2022-08-10T20:24:41.664Z,100188.11
2022-08-10T20:28:19.932Z,100187.42
2022-08-10T20:31:29.627Z,100184.17
2022-08-10T20:34:51.701Z,100181.52
2022-08-10T20:38:11.203Z,100182.42
2022-08-10T20:41:28.335Z,100182.12
2022-08-10T20:45:04.493Z,100180.92
2022-08-10T20:48:13.774Z,100179.23
2022-08-10T20:51:21.244Z,100180.49
2022-08-10T20:54:27.646Z,100184.34
2022-08-10T20:58:03.878Z,100182.48
2022-08-10T21:01:13.581Z,100183.88
2022-08-10T21:04:41.506Z,100181.23
2022-08-10T21:08:05.166Z,100180.41
2022-08-10T21:11:14.577Z,100181.86
2022-08-10T21:14:22.501Z,100182.45
2022-08-10T21:17:58.445Z,100181.19
2022-08-10T21:21:41.842Z,100181.71
2022-08-10T21:24:53.409Z,100180.10
2022-08-10T21:28:05.733Z,100177.59
2022-08-10T21:31:10.448Z,100177.48
2022-08-10T21:34:39.572Z,100178.41
2022-08-10T21:38:08.260Z,100177.27
2022-08-10T21:41:57.332Z,100178.88
2022-08-10T21:45:59.339Z,100180.11
2022-08-10T21:49:53.110Z,100180.80
2022-08-10T21:53:22.636Z,100175.61
2022-08-10T21:57:13.093Z,100174.77
2022-08-10T22:04:13.732Z,100176.44
2022-08-10T22:07:40.889Z,100176.59
2022-08-10T22:11:10.921Z,100175.90
2022-08-10T22:14:33.541Z,100177.29
2022-08-10T22:18:00.768Z,100176.14
2022-08-10T22:21:49.984Z,100175.73
2022-08-10T22:25:23.063Z,100169.28
2022-08-10T22:28:43.688Z,100165.84
2022-08-10T22:32:09.485Z,100168.55
2022-08-10T22:35:36.767Z,100167.64
2022-08-10T22:39:13.870Z,100167.30
2022-08-10T22:42:59.407Z,100169.28
2022-08-10T22:46:42.825Z,100167.51
2022-08-10T22:49:44.672Z,100165.20
2022-08-10T22:53:02.055Z,100161.06
2022-08-10T22:56:24.796Z,100159.57
2022-08-10T22:59:29.192Z,100156.67
2022-08-10T23:02:33.978Z,100154.86
2022-08-10T23:05:39.475Z,100156.91
2022-08-10T23:08:43.538Z,100158.20
2022-08-10T23:11:47.515Z,100156.67
2022-08-10T23:14:59.007Z,100151.80
2022-08-10T23:18:23.161Z,100154.01
2022-08-10T23:21:47.693Z,100159.02
2022-08-10T23:25:01.270Z,100154.95
2022-08-10T23:28:12.640Z,100150.59
2022-08-10T23:32:01.465Z,100157.16
2022-08-10T23:34:43.575Z,100153.05
2022-08-10T23:37:45.852Z,100151.30
2022-08-10T23:40:51.738Z,100149.39
2022-08-10T23:44:04.123Z,100150.36
2022-08-10T23:47:07.106Z,100145.76
2022-08-10T23:50:11.412Z,100144.97
2022-08-10T23:53:13.920Z,100141.66
2022-08-10T23:56:18.644Z,100142.45
2022-08-10T23:59:22.921Z,100147.77
